createdAt,value
2018-09-27T00:01:38.029Z,1.20
2018-09-27T00:04:06.803Z,1.70
2018-09-27T00:06:35.504Z,1.27
2018-09-27T00:09:04.839Z,1.40
2018-09-27T00:11:33.411Z,1.30
2018-09-27T00:14:02.108Z,1.23
2018-09-27T00:16:30.700Z,1.40
2018-09-27T00:18:59.279Z,1.57
2018-09-27T00:21:27.890Z,1.63
2018-09-27T00:23:56.671Z,1.60
2018-09-27T00:26:25.272Z,1.23
2018-09-27T00:28:54.071Z,1.20
2018-09-27T00:31:22.648Z,1.17
2018-09-27T00:33:51.459Z,1.30
2018-09-27T00:36:20.164Z,1.63
2018-09-27T00:38:48.874Z,1.43
2018-09-27T00:41:17.472Z,1.30
2018-09-27T00:43:46.141Z,1.33
2018-09-27T00:46:14.832Z,1.37
2018-09-27T00:48:43.543Z,1.37
2018-09-27T00:51:12.329Z,1.33
2018-09-27T00:53:40.998Z,1.23
2018-09-27T00:56:10.668Z,1.10
2018-09-27T00:58:39.322Z,1.27
2018-09-27T01:01:07.984Z,1.30
2018-09-27T01:03:36.763Z,1.10
2018-09-27T01:06:05.380Z,1.43
2018-09-27T01:08:33.761Z,1.30
2018-09-27T01:11:02.156Z,1.27
2018-09-27T01:13:30.578Z,1.10
2018-09-27T01:15:59.050Z,1.40
2018-09-27T01:18:27.535Z,1.30
2018-09-27T01:20:56.003Z,1.30
2018-09-27T01:23:24.416Z,1.17
2018-09-27T01:25:52.892Z,1.40
2018-09-27T01:28:21.286Z,1.50
2018-09-27T01:30:49.816Z,1.33
2018-09-27T01:33:18.239Z,1.60
2018-09-27T01:35:46.671Z,1.10
2018-09-27T01:38:15.091Z,1.33
2018-09-27T01:40:43.591Z,1.13
2018-09-27T01:43:11.991Z,1.77
2018-09-27T01:45:40.555Z,1.30
2018-09-27T01:48:08.946Z,1.40
2018-09-27T01:50:37.306Z,1.90
2018-09-27T01:53:05.935Z,1.73
2018-09-27T01:55:34.432Z,1.47
2018-09-27T01:58:02.883Z,1.50
2018-09-27T02:00:31.324Z,1.90
2018-09-27T02:02:59.747Z,2.07
2018-09-27T02:05:28.195Z,1.83
2018-09-27T02:07:56.637Z,1.60
2018-09-27T02:10:31.575Z,2.23
2018-09-27T02:12:59.889Z,1.50
2018-09-27T02:15:28.244Z,1.80
2018-09-27T02:17:56.531Z,1.93
2018-09-27T02:20:24.823Z,1.80
2018-09-27T02:22:53.135Z,1.50
2018-09-27T02:25:27.744Z,1.90
2018-09-27T02:27:56.047Z,2.17
2018-09-27T02:30:24.386Z,1.73
2018-09-27T02:32:52.696Z,1.53
2018-09-27T02:35:21.009Z,1.83
2018-09-27T02:37:49.332Z,2.17
2018-09-27T02:40:17.652Z,2.20
2018-09-27T02:42:46.003Z,1.73
2018-09-27T02:45:14.316Z,1.80
2018-09-27T02:47:44.392Z,1.70
2018-09-27T02:50:12.777Z,1.43
2018-09-27T02:52:41.161Z,1.80
2018-09-27T02:55:09.615Z,1.90
2018-09-27T02:57:38.007Z,2.20
2018-09-27T03:00:29.403Z,1.80
2018-09-27T03:02:57.777Z,1.77
2018-09-27T03:05:26.224Z,1.77
2018-09-27T03:07:54.521Z,1.60
2018-09-27T03:10:22.831Z,1.53
2018-09-27T03:12:51.212Z,2.67
2018-09-27T03:15:19.562Z,1.70
2018-09-27T03:17:47.872Z,1.60
2018-09-27T03:20:16.224Z,1.37
2018-09-27T03:22:44.562Z,1.83
2018-09-27T03:25:12.876Z,1.73
2018-09-27T03:27:41.332Z,1.60
2018-09-27T03:30:09.708Z,1.83
2018-09-27T03:32:38.024Z,1.57
2018-09-27T03:35:06.382Z,2.00
2018-09-27T03:37:34.753Z,1.70
2018-09-27T03:40:03.115Z,2.07
2018-09-27T03:42:31.505Z,2.10
2018-09-27T03:44:59.880Z,1.90
2018-09-27T03:47:28.420Z,2.10
2018-09-27T03:49:56.768Z,1.83
2018-09-27T03:52:25.128Z,2.00
2018-09-27T03:54:53.473Z,1.93
2018-09-27T03:57:21.809Z,1.90
2018-09-27T03:59:53.155Z,2.20
2018-09-27T04:02:21.692Z,1.50
2018-09-27T04:04:50.054Z,2.10
2018-09-27T04:07:18.450Z,2.77
2018-09-27T04:09:46.925Z,2.10
2018-09-27T04:12:15.308Z,1.70
2018-09-27T04:14:43.705Z,1.90
2018-09-27T04:17:12.168Z,1.57
2018-09-27T04:19:40.654Z,1.50
2018-09-27T04:22:09.044Z,2.00
2018-09-27T04:24:37.416Z,2.27
2018-09-27T04:27:05.977Z,1.90
2018-09-27T04:29:34.338Z,1.97
2018-09-27T04:32:02.669Z,1.90
2018-09-27T04:34:31.020Z,1.63
2018-09-27T04:37:00.435Z,1.80
2018-09-27T04:39:28.837Z,1.80
2018-09-27T04:41:57.248Z,1.90
2018-09-27T04:44:25.588Z,1.53
2018-09-27T04:46:53.991Z,1.57
2018-09-27T04:49:22.411Z,1.80
2018-09-27T04:51:50.830Z,1.83
2018-09-27T04:54:19.264Z,1.83
2018-09-27T04:56:47.705Z,1.77
2018-09-27T04:59:16.124Z,1.87
2018-09-27T05:01:44.488Z,1.27
2018-09-27T05:04:13.116Z,1.37
2018-09-27T05:06:41.445Z,1.63
2018-09-27T05:09:10.157Z,1.43
2018-09-27T05:11:38.609Z,1.60
2018-09-27T05:14:06.940Z,1.60
2018-09-27T05:16:35.292Z,1.70
2018-09-27T05:19:03.621Z,1.60
2018-09-27T05:21:32.038Z,1.27
2018-09-27T05:24:00.314Z,1.90
2018-09-27T05:26:28.757Z,1.50
2018-09-27T05:28:57.096Z,1.70
2018-09-27T05:31:25.454Z,1.73
2018-09-27T05:33:53.845Z,1.70
2018-09-27T05:36:22.392Z,1.60
2018-09-27T05:38:50.778Z,1.50
2018-09-27T05:41:19.129Z,1.57
2018-09-27T05:43:47.603Z,1.80
2018-09-27T05:46:16.357Z,2.07
2018-09-27T05:48:44.810Z,1.87
2018-09-27T05:51:13.208Z,2.17
2018-09-27T05:53:41.694Z,2.40
2018-09-27T05:56:10.026Z,1.70
2018-09-27T05:58:38.417Z,1.77
2018-09-27T06:01:07.003Z,1.97
2018-09-27T06:03:35.574Z,2.30
2018-09-27T06:06:04.013Z,2.07
2018-09-27T06:08:32.383Z,2.20
2018-09-27T06:11:01.160Z,2.27
2018-09-27T06:13:29.503Z,2.10
2018-09-27T06:15:57.859Z,2.17
2018-09-27T06:18:26.201Z,2.00
2018-09-27T06:20:55.049Z,1.90
2018-09-27T06:23:23.480Z,1.97
2018-09-27T06:25:51.883Z,1.73
2018-09-27T06:28:20.334Z,1.57
2018-09-27T06:30:48.856Z,2.00
2018-09-27T06:33:17.168Z,1.90
2018-09-27T06:35:45.569Z,2.27
2018-09-27T06:38:13.951Z,1.87
2018-09-27T06:40:42.305Z,1.47
2018-09-27T06:43:10.662Z,2.13
2018-09-27T06:45:38.999Z,1.47
2018-09-27T06:48:07.349Z,1.93
2018-09-27T06:50:35.725Z,2.10
2018-09-27T06:53:04.016Z,2.33
2018-09-27T06:55:32.491Z,2.20
2018-09-27T06:58:00.847Z,1.67
2018-09-27T07:00:30.268Z,1.77
2018-09-27T07:02:58.605Z,1.63
2018-09-27T07:05:27.049Z,1.70
2018-09-27T07:07:55.372Z,1.60
2018-09-27T07:10:23.692Z,1.20
2018-09-27T07:12:52.202Z,1.20
2018-09-27T07:15:20.638Z,1.50
2018-09-27T07:17:48.989Z,1.43
2018-09-27T07:20:17.415Z,1.20
2018-09-27T07:22:45.729Z,1.30
2018-09-27T07:25:14.158Z,1.60
2018-09-27T07:27:42.435Z,1.50
2018-09-27T07:30:10.880Z,7.07
2018-09-27T07:32:39.274Z,3.70
2018-09-27T07:35:07.609Z,2.37
2018-09-27T07:37:35.980Z,1.93
2018-09-27T07:40:04.309Z,1.60
2018-09-27T07:42:32.691Z,2.00
2018-09-27T07:45:01.067Z,1.40
2018-09-27T07:47:29.478Z,1.47
2018-09-27T07:49:57.874Z,1.10
2018-09-27T07:52:26.272Z,1.43
2018-09-27T07:54:54.933Z,1.57
2018-09-27T07:57:23.240Z,1.53
2018-09-27T07:59:52.029Z,1.03
2018-09-27T08:02:20.391Z,1.30
2018-09-27T08:04:48.810Z,0.93
2018-09-27T08:07:17.243Z,1.40
2018-09-27T08:09:45.572Z,1.40
2018-09-27T08:12:13.951Z,1.00
2018-09-27T08:14:42.387Z,0.80
2018-09-27T08:17:10.735Z,1.00
2018-09-27T08:19:39.076Z,1.40
2018-09-27T08:22:07.741Z,1.30
2018-09-27T08:24:36.189Z,1.37
2018-09-27T08:27:04.529Z,1.10
2018-09-27T08:29:32.856Z,1.03
2018-09-27T08:32:01.192Z,0.80
2018-09-27T08:34:29.524Z,0.70
2018-09-27T08:36:57.879Z,1.00
2018-09-27T08:39:26.200Z,0.73
2018-09-27T08:41:54.525Z,1.10
2018-09-27T08:44:22.835Z,0.60
2018-09-27T08:46:51.172Z,0.40
2018-09-27T08:49:19.525Z,0.80
2018-09-27T08:51:47.864Z,0.70
2018-09-27T08:54:16.204Z,0.70
2018-09-27T08:56:44.598Z,1.07
2018-09-27T08:59:13.976Z,1.37
2018-09-27T09:01:42.392Z,0.90
2018-09-27T09:04:10.732Z,0.80
2018-09-27T09:06:39.092Z,0.83
2018-09-27T09:09:10.125Z,0.80
2018-09-27T09:11:42.474Z,1.10
2018-09-27T09:14:11.764Z,0.80
2018-09-27T09:16:40.164Z,1.00
2018-09-27T09:19:08.513Z,0.90
2018-09-27T09:21:36.978Z,0.87
2018-09-27T09:24:05.332Z,1.50
2018-09-27T09:26:37.446Z,0.93
2018-09-27T09:29:12.356Z,0.90
2018-09-27T09:31:40.924Z,0.80
2018-09-27T09:34:19.301Z,1.00
2018-09-27T09:36:47.737Z,0.83
2018-09-27T09:39:16.212Z,1.03
2018-09-27T09:41:44.724Z,1.10
2018-09-27T09:44:13.209Z,0.90
2018-09-27T09:46:46.013Z,0.90
2018-09-27T09:49:20.909Z,0.70
2018-09-27T09:51:49.336Z,0.90
2018-09-27T09:54:17.800Z,0.90
2018-09-27T09:56:46.212Z,0.80
2018-09-27T09:59:14.644Z,1.00
2018-09-27T10:01:43.063Z,0.77
2018-09-27T10:04:12.501Z,0.77
2018-09-27T10:06:40.928Z,0.63
2018-09-27T10:09:13.361Z,0.70
2018-09-27T10:11:41.800Z,0.97
2018-09-27T10:14:10.248Z,0.87
2018-09-27T10:16:38.660Z,0.90
2018-09-27T10:19:07.069Z,1.27
2018-09-27T10:21:35.530Z,0.80
2018-09-27T10:24:09.764Z,0.80
2018-09-27T10:26:38.189Z,0.60
2018-09-27T10:29:06.619Z,0.93
2018-09-27T10:31:35.096Z,0.87
2018-09-27T10:34:03.578Z,0.80
2018-09-27T10:36:33.006Z,1.00
2018-09-27T10:39:01.416Z,0.80
2018-09-27T10:41:29.825Z,0.90
2018-09-27T10:43:58.276Z,1.03
2018-09-27T10:46:26.701Z,1.07
2018-09-27T10:48:55.154Z,1.00
2018-09-27T10:51:28.690Z,0.90
2018-09-27T10:53:57.160Z,0.70
2018-09-27T10:56:25.618Z,0.90
2018-09-27T10:58:54.128Z,0.87
2018-09-27T11:01:22.544Z,1.00
2018-09-27T11:03:50.998Z,1.00
2018-09-27T11:06:19.432Z,1.40
2018-09-27T11:08:47.957Z,1.00
2018-09-27T11:11:16.449Z,0.80
2018-09-27T11:13:45.917Z,1.40
2018-09-27T11:16:14.416Z,0.90
2018-09-27T11:18:42.812Z,0.93
2018-09-27T11:21:11.336Z,0.67
2018-09-27T11:23:39.820Z,0.80
2018-09-27T11:26:08.364Z,0.90
2018-09-27T11:28:42.014Z,0.90
2018-09-27T11:31:21.593Z,0.80
2018-09-27T11:33:50.024Z,1.10
2018-09-27T11:36:23.310Z,1.00
2018-09-27T11:38:52.724Z,0.90
2018-09-27T11:41:21.220Z,1.30
2018-09-27T11:43:49.664Z,0.73
2018-09-27T11:46:18.106Z,1.20
2018-09-27T11:48:46.672Z,1.00
2018-09-27T11:51:15.166Z,1.20
2018-09-27T11:53:43.830Z,0.70
2018-09-27T11:56:12.308Z,0.93
2018-09-27T11:58:41.729Z,1.00
2018-09-27T12:01:10.544Z,0.83
2018-09-27T12:03:40.044Z,1.03
2018-09-27T12:06:08.479Z,1.00
2018-09-27T12:08:37.160Z,1.00
2018-09-27T12:11:05.764Z,0.73
2018-09-27T12:13:34.302Z,1.10
2018-09-27T12:16:02.744Z,1.13
2018-09-27T12:18:32.204Z,1.10
2018-09-27T12:21:00.624Z,1.30
2018-09-27T12:23:33.516Z,1.20
2018-09-27T12:26:01.958Z,1.23
2018-09-27T12:28:30.408Z,1.17
2018-09-27T12:30:58.927Z,1.37
2018-09-27T12:33:27.307Z,1.10
2018-09-27T12:35:55.748Z,1.17
2018-09-27T12:38:24.226Z,1.20
2018-09-27T12:40:52.681Z,1.10
2018-09-27T12:43:21.714Z,0.90
2018-09-27T12:45:50.178Z,1.07
2018-09-27T12:48:19.461Z,1.00
2018-09-27T12:50:47.956Z,1.40
2018-09-27T12:53:16.522Z,1.30
2018-09-27T12:55:44.970Z,1.40
2018-09-27T12:58:14.484Z,1.30
2018-09-27T13:00:43.995Z,1.20
2018-09-27T13:03:12.446Z,1.27
2018-09-27T13:05:40.932Z,1.30
2018-09-27T13:08:09.428Z,1.00
2018-09-27T13:10:37.882Z,1.10
2018-09-27T13:13:06.562Z,1.20
2018-09-27T13:15:35.018Z,1.30
2018-09-27T13:18:03.499Z,1.13
2018-09-27T13:20:31.854Z,1.43
2018-09-27T13:23:00.270Z,1.43
2018-09-27T13:25:28.744Z,1.37
2018-09-27T13:27:57.195Z,1.20
2018-09-27T13:30:25.737Z,1.30
2018-09-27T13:32:55.290Z,1.40
2018-09-27T13:35:23.812Z,1.80
2018-09-27T13:37:52.252Z,1.30
2018-09-27T13:40:20.801Z,1.40
2018-09-27T13:42:49.304Z,1.20
2018-09-27T13:45:18.800Z,1.00
2018-09-27T13:47:47.317Z,1.20
2018-09-27T13:50:15.872Z,1.00
2018-09-27T13:52:44.372Z,1.30
2018-09-27T13:55:12.952Z,1.13
2018-09-27T13:57:41.432Z,1.03
2018-09-27T14:00:10.303Z,1.10
2018-09-27T14:02:40.712Z,1.13
2018-09-27T14:05:09.152Z,1.43
2018-09-27T14:07:37.573Z,1.50
2018-09-27T14:10:06.128Z,1.00
2018-09-27T14:12:35.552Z,1.27
2018-09-27T14:15:04.088Z,1.40
2018-09-27T14:17:32.476Z,1.10
2018-09-27T14:20:00.829Z,1.33
2018-09-27T14:22:29.186Z,1.50
2018-09-27T14:24:57.672Z,1.13
2018-09-27T14:27:26.035Z,1.03
2018-09-27T14:29:54.473Z,1.10
2018-09-27T14:32:23.088Z,1.00
2018-09-27T14:34:51.457Z,1.00
2018-09-27T14:37:20.010Z,0.87
2018-09-27T14:39:48.441Z,1.07
2018-09-27T14:42:17.874Z,1.10
2018-09-27T14:44:46.326Z,1.50
2018-09-27T14:47:14.760Z,1.17
2018-09-27T14:49:47.189Z,1.20
2018-09-27T14:52:15.669Z,0.93
2018-09-27T14:54:44.142Z,0.90
2018-09-27T14:57:12.570Z,1.27
2018-09-27T14:59:40.980Z,1.30
2018-09-27T15:02:09.548Z,1.10
2018-09-27T15:04:37.956Z,1.30
2018-09-27T15:07:06.397Z,1.17
2018-09-27T15:09:35.037Z,1.30
2018-09-27T15:12:03.403Z,1.10
2018-09-27T15:14:31.940Z,1.07
2018-09-27T15:17:00.480Z,1.13
2018-09-27T15:19:30.997Z,1.27
2018-09-27T15:21:59.475Z,0.80
2018-09-27T15:24:28.178Z,1.00
2018-09-27T15:26:56.804Z,1.40
2018-09-27T15:29:25.592Z,1.10
2018-09-27T15:31:56.043Z,1.17
2018-09-27T15:34:24.617Z,1.27
2018-09-27T15:36:53.120Z,1.23
2018-09-27T15:39:21.640Z,1.10
2018-09-27T15:41:51.138Z,1.27
2018-09-27T15:44:19.625Z,1.13
2018-09-27T15:46:48.153Z,1.20
2018-09-27T15:49:17.605Z,1.50
2018-09-27T15:51:46.117Z,1.10
2018-09-27T15:54:15.618Z,1.27
2018-09-27T15:56:44.101Z,0.97
2018-09-27T15:59:12.629Z,1.10
2018-09-27T16:01:41.078Z,1.20
2018-09-27T16:04:09.679Z,1.23
2018-09-27T16:06:38.128Z,1.50
2018-09-27T16:09:08.092Z,1.33
2018-09-27T16:11:36.566Z,1.10
2018-09-27T16:14:05.052Z,1.27
2018-09-27T16:16:33.497Z,1.20
2018-09-27T16:19:04.044Z,1.17
2018-09-27T16:21:32.489Z,1.83
2018-09-27T16:24:00.949Z,1.90
2018-09-27T16:26:29.417Z,1.70
2018-09-27T16:28:57.944Z,2.13
2018-09-27T16:31:26.502Z,1.77
2018-09-27T16:33:55.086Z,2.00
2018-09-27T16:36:23.701Z,1.60
2018-09-27T16:38:52.177Z,1.57
2018-09-27T16:41:20.786Z,1.27
2018-09-27T16:43:49.541Z,1.17
2018-09-27T16:46:18.117Z,1.30
2018-09-27T16:48:46.634Z,1.40
2018-09-27T16:51:15.213Z,1.40
2018-09-27T16:53:43.769Z,1.13
2018-09-27T16:56:13.223Z,1.63
2018-09-27T16:58:41.651Z,1.40
2018-09-27T17:01:10.163Z,1.20
2018-09-27T17:03:38.589Z,2.00
2018-09-27T17:06:07.004Z,1.27
2018-09-27T17:08:35.422Z,1.70
2018-09-27T17:11:03.868Z,2.43
2018-09-27T17:13:32.332Z,1.70
2018-09-27T17:16:00.755Z,1.93
2018-09-27T17:18:29.201Z,2.40
2018-09-27T17:20:57.640Z,2.17
2018-09-27T17:23:26.207Z,2.10
2018-09-27T17:25:54.645Z,2.07
2018-09-27T17:28:23.182Z,2.20
2018-09-27T17:30:51.648Z,1.53
2018-09-27T17:33:20.183Z,1.70
2018-09-27T17:35:48.584Z,2.20
2018-09-27T17:38:19.825Z,2.53
2018-09-27T17:40:48.407Z,1.87
2018-09-27T17:43:16.811Z,2.20
2018-09-27T17:45:45.257Z,1.90
2018-09-27T17:48:13.754Z,1.37
2018-09-27T17:50:42.228Z,1.87
2018-09-27T17:53:10.806Z,1.90
2018-09-27T17:55:39.298Z,2.10
2018-09-27T17:58:07.782Z,2.20
2018-09-27T18:00:36.197Z,2.00
2018-09-27T18:03:04.715Z,2.17
2018-09-27T18:05:33.219Z,2.50
2018-09-27T18:08:01.661Z,1.90
2018-09-27T18:10:30.179Z,2.17
2018-09-27T18:12:58.606Z,1.73
2018-09-27T18:15:27.088Z,1.73
2018-09-27T18:17:55.572Z,1.90
2018-09-27T18:20:24.040Z,2.27
2018-09-27T18:22:52.589Z,1.80
2018-09-27T18:25:21.182Z,1.90
2018-09-27T18:27:49.625Z,2.20
2018-09-27T18:30:20.368Z,1.70
2018-09-27T18:32:48.869Z,1.90
2018-09-27T18:35:17.387Z,1.83
2018-09-27T18:37:45.993Z,2.10
2018-09-27T18:40:15.432Z,2.23
2018-09-27T18:42:43.920Z,2.30
2018-09-27T18:45:12.377Z,2.00
2018-09-27T18:47:40.905Z,2.10
2018-09-27T18:50:09.608Z,2.00
2018-09-27T18:52:38.146Z,1.83
2018-09-27T18:55:07.012Z,2.20
2018-09-27T18:57:35.467Z,2.27
2018-09-27T19:00:05.154Z,1.87
2018-09-27T19:02:34.869Z,1.83
2018-09-27T19:05:03.348Z,2.30
2018-09-27T19:07:31.817Z,1.70
2018-09-27T19:10:00.292Z,2.10
2018-09-27T19:12:28.889Z,1.70
2018-09-27T19:14:57.394Z,1.80
2018-09-27T19:17:25.854Z,2.10
2018-09-27T19:19:54.461Z,1.67
2018-09-27T19:22:22.895Z,3.20
2018-09-27T19:24:51.352Z,2.20
2018-09-27T19:27:19.843Z,2.10
2018-09-27T19:29:48.265Z,2.10
2018-09-27T19:32:16.848Z,1.90
2018-09-27T19:34:45.451Z,1.70
2018-09-27T19:37:13.932Z,2.00
2018-09-27T19:39:42.412Z,1.87
2018-09-27T19:42:10.864Z,2.17
2018-09-27T19:44:39.424Z,1.90
2018-09-27T19:47:07.896Z,2.60
2018-09-27T19:49:36.397Z,2.50
2018-09-27T19:52:04.986Z,2.00
2018-09-27T19:54:33.473Z,2.60
2018-09-27T19:57:02.346Z,2.10
2018-09-27T19:59:31.545Z,2.50
2018-09-27T20:02:01.495Z,2.70
2018-09-27T20:04:32.715Z,2.70
2018-09-27T20:07:01.178Z,2.37
2018-09-27T20:09:29.653Z,2.50
2018-09-27T20:11:58.151Z,2.10
2018-09-27T20:14:26.639Z,2.87
2018-09-27T20:16:55.177Z,2.20
2018-09-27T20:19:23.599Z,2.93
2018-09-27T20:21:53.033Z,2.70
2018-09-27T20:24:21.636Z,2.20
2018-09-27T20:26:50.874Z,2.30
2018-09-27T20:29:22.273Z,1.90
2018-09-27T20:31:51.973Z,2.17
2018-09-27T20:34:20.409Z,2.30
2018-09-27T20:36:48.825Z,2.40
2018-09-27T20:39:17.389Z,2.27
2018-09-27T20:41:46.715Z,2.30
2018-09-27T20:44:15.154Z,2.07
2018-09-27T20:46:43.625Z,2.20
2018-09-27T20:49:11.943Z,2.13
2018-09-27T20:51:40.404Z,5.63
2018-09-27T20:54:08.932Z,2.60
2018-09-27T20:56:37.327Z,2.30
2018-09-27T20:59:05.687Z,2.47
2018-09-27T21:01:34.144Z,3.00
2018-09-27T21:04:02.629Z,2.87
2018-09-27T21:06:30.996Z,2.53
2018-09-27T21:08:59.671Z,2.57
2018-09-27T21:11:28.156Z,2.57
2018-09-27T21:13:56.596Z,2.40
2018-09-27T21:16:25.055Z,2.23
2018-09-27T21:18:53.653Z,2.60
2018-09-27T21:21:22.874Z,2.20
2018-09-27T21:23:51.274Z,2.00
2018-09-27T21:26:20.556Z,2.17
2018-09-27T21:28:48.997Z,2.10
2018-09-27T21:31:17.413Z,2.53
2018-09-27T21:33:45.845Z,2.20
2018-09-27T21:36:14.288Z,2.30
2018-09-27T21:38:42.736Z,2.33
2018-09-27T21:41:11.344Z,2.03
2018-09-27T21:43:39.853Z,2.30
2018-09-27T21:46:08.360Z,2.20
2018-09-27T21:48:36.876Z,2.03
2018-09-27T21:51:05.374Z,2.30
2018-09-27T21:53:33.885Z,2.20
2018-09-27T21:56:02.642Z,2.20
2018-09-27T21:58:31.203Z,2.30
2018-09-27T22:00:59.859Z,2.80
2018-09-27T22:03:28.467Z,2.57
2018-09-27T22:05:56.976Z,2.10
2018-09-27T22:08:25.500Z,2.43
2018-09-27T22:10:53.922Z,2.77
2018-09-27T22:13:22.620Z,2.23
2018-09-27T22:15:51.023Z,2.47
2018-09-27T22:18:19.464Z,2.60
2018-09-27T22:20:47.924Z,2.40
2018-09-27T22:23:16.393Z,2.20
2018-09-27T22:25:44.832Z,2.37
2018-09-27T22:28:13.264Z,2.20
2018-09-27T22:30:41.712Z,2.50
2018-09-27T22:33:10.150Z,2.43
2018-09-27T22:35:38.596Z,2.33
2018-09-27T22:38:07.233Z,2.60
2018-09-27T22:40:36.692Z,2.23
2018-09-27T22:43:05.100Z,2.57
2018-09-27T22:45:33.467Z,2.33
2018-09-27T22:48:01.771Z,2.50
2018-09-27T22:50:30.236Z,2.23
2018-09-27T22:52:58.773Z,2.50
2018-09-27T22:55:27.264Z,2.57
2018-09-27T22:57:55.784Z,3.10
2018-09-27T23:00:24.179Z,2.23
2018-09-27T23:02:52.616Z,2.60
2018-09-27T23:05:21.004Z,2.10
2018-09-27T23:07:49.435Z,2.40
2018-09-27T23:10:17.939Z,3.00
2018-09-27T23:12:46.395Z,2.70
2018-09-27T23:15:14.830Z,3.10
2018-09-27T23:17:43.268Z,3.13
2018-09-27T23:20:12.036Z,3.30
2018-09-27T23:22:40.507Z,3.43
2018-09-27T23:25:09.215Z,2.80
2018-09-27T23:27:37.645Z,4.20
2018-09-27T23:30:06.283Z,3.07
2018-09-27T23:32:34.776Z,3.77
2018-09-27T23:35:03.310Z,3.13
2018-09-27T23:37:31.784Z,3.63
2018-09-27T23:40:00.234Z,3.63
2018-09-27T23:42:28.737Z,3.90
2018-09-27T23:44:57.208Z,3.43
2018-09-27T23:47:25.521Z,3.73
2018-09-27T23:49:53.856Z,3.70
2018-09-27T23:52:22.204Z,3.50
2018-09-27T23:54:50.515Z,3.43
2018-09-27T23:57:18.981Z,4.53
2018-09-27T23:59:47.402Z,4.23
